Time;durP1;ratioP1;P1;durP2;ratioP2;P2;SDS_P1;SDS_P2;PMS_P1;PMS_P2;Temp;Humidity;BMP_temperature;BMP_pressure;BME280_temperature;BME280_humidity;BME280_pressure;Samples;Min_cycle;Max_cycle;Signal;HPM_P1;HPM_P2
2022/04/26 03:36:43;;;;;;;30.58;17.88;;;;;;;7.68;100.00;96958.16;5065701;28;20528;-64
2022/04/26 03:39:10;;;;;;;33.60;18.92;;;;;;;7.64;100.00;96964.28;5055751;28;20397;-65
2022/04/26 03:41:37;;;;;;;32.05;18.77;;;;;;;7.55;100.00;96958.47;5046410;28;20044;-65
2022/04/26 03:44:04;;;;;;;38.40;19.25;;;;;;;7.53;100.00;96957.91;5047046;28;20492;-65
2022/04/26 03:46:30;;;;;;;37.03;19.92;;;;;;;7.51;100.00;96960.00;5045637;28;20496;-64
2022/04/26 03:48:57;;;;;;;37.33;18.88;;;;;;;7.42;100.00;96956.91;5050792;28;20040;-64
2022/04/26 03:51:23;;;;;;;36.42;18.90;;;;;;;7.46;100.00;96965.31;5066303;28;20048;-65
2022/04/26 03:53:50;;;;;;;36.05;20.35;;;;;;;7.41;100.00;96964.16;5086995;28;20048;-65
2022/04/26 03:56:16;;;;;;;37.97;19.23;;;;;;;7.45;100.00;96969.06;5067111;28;20647;-65
2022/04/26 03:58:43;;;;;;;36.30;18.52;;;;;;;7.47;100.00;96964.25;5045902;28;20037;-65
2022/04/26 04:01:10;;;;;;;35.55;18.90;;;;;;;7.44;100.00;96973.63;5045212;28;20049;-65
2022/04/26 04:03:38;;;;;;;33.53;18.85;;;;;;;7.35;100.00;96967.81;5063396;28;20040;-66
2022/04/26 04:06:05;;;;;;;37.83;19.10;;;;;;;7.40;100.00;96977.84;5048245;28;20094;-65
2022/04/26 04:08:31;;;;;;;37.63;18.27;;;;;;;7.34;100.00;96976.13;5048126;28;20038;-65
2022/04/26 04:10:58;;;;;;;34.95;18.80;;;;;;;7.30;100.00;96978.50;5046217;28;20049;-64
2022/04/26 04:13:24;;;;;;;37.70;19.10;;;;;;;7.35;100.00;96988.53;5046311;28;20132;-64
2022/04/26 04:15:51;;;;;;;34.67;18.15;;;;;;;7.34;100.00;96976.13;5045958;28;20045;-64
2022/04/26 04:21:04;;;;;;;41.38;20.98;;;;;;;7.31;100.00;96992.78;5064689;28;20770;-64
2022/04/26 04:23:31;;;;;;;40.75;18.60;;;;;;;7.30;100.00;96991.97;5065636;28;20683;-66
2022/04/26 04:25:57;;;;;;;39.78;19.55;;;;;;;7.35;100.00;96999.31;5045003;28;20095;-65
2022/04/26 04:28:24;;;;;;;39.42;19.33;;;;;;;7.29;100.00;96998.41;5065478;28;20040;-64
2022/04/26 04:30:51;;;;;;;35.65;18.65;;;;;;;7.33;100.00;96999.56;5053906;28;20041;-65
2022/04/26 04:33:17;;;;;;;40.72;17.80;;;;;;;7.27;100.00;97000.53;5058336;28;20052;-65
2022/04/26 04:35:44;;;;;;;34.03;17.52;;;;;;;7.31;100.00;96998.16;5044681;28;20044;-65
2022/04/26 04:38:10;;;;;;;42.15;20.17;;;;;;;7.44;100.00;96994.38;5046843;28;20049;-64
2022/04/26 04:40:37;;;;;;;32.05;18.70;;;;;;;7.39;100.00;96985.13;5046135;28;20220;-65
2022/04/26 04:43:04;;;;;;;34.47;17.70;;;;;;;7.33;100.00;96986.09;5049054;28;20515;-65
2022/04/26 04:45:31;;;;;;;32.15;18.75;;;;;;;7.24;100.00;96990.22;5064145;28;20036;-65
2022/04/26 04:47:57;;;;;;;35.97;18.55;;;;;;;7.43;100.00;96988.16;5060556;28;20037;-65
2022/04/26 04:50:24;;;;;;;31.08;17.42;;;;;;;7.41;100.00;96992.97;5060466;28;20098;-65
2022/04/26 04:52:50;;;;;;;32.08;17.25;;;;;;;7.50;100.00;96980.75;5069761;28;20051;-64
2022/04/26 04:55:17;;;;;;;30.38;18.17;;;;;;;7.52;100.00;96981.31;5064080;28;20526;-65
2022/04/26 04:57:45;;;;;;;36.88;18.45;;;;;;;7.49;100.00;96989.06;5054336;28;20135;-65
2022/04/26 05:00:12;;;;;;;32.05;17.02;;;;;;;7.44;100.00;96986.28;5051569;28;20047;-64
2022/04/26 05:02:38;;;;;;;24.95;16.10;;;;;;;7.48;100.00;96992.84;5043943;28;20099;-64
2022/04/26 05:05:06;;;;;;;26.00;15.82;;;;;;;7.52;100.00;96992.09;5073596;28;20049;-64
2022/04/26 05:07:32;;;;;;;28.42;17.10;;;;;;;7.72;100.00;97000.78;5051723;28;20052;-64
2022/04/26 05:09:59;;;;;;;28.83;16.48;;;;;;;7.66;100.00;97000.69;5059137;28;20052;-64
2022/04/26 05:12:25;;;;;;;28.60;16.85;;;;;;;7.59;100.00;96999.22;5062057;28;20056;-65
2022/04/26 05:14:52;;;;;;;25.67;15.48;;;;;;;7.38;100.00;97002.34;5046475;28;20052;-65
2022/04/26 05:17:18;;;;;;;26.90;15.60;;;;;;;7.37;100.00;96999.91;5042541;28;20092;-64
2022/04/26 05:19:45;;;;;;;28.33;15.05;;;;;;;7.44;100.00;96999.75;5049347;28;20049;-64
2022/04/26 05:22:11;;;;;;;25.98;15.70;;;;;;;7.44;100.00;96999.75;5050431;28;20052;-64
2022/04/26 05:24:56;;;;;;;24.02;14.68;;;;;;;7.50;100.00;96999.63;5064231;28;20550;-64
2022/04/26 05:27:31;;;;;;;32.25;17.58;;;;;;;7.53;100.00;96999.09;5054884;28;20543;-64
2022/04/26 05:29:58;;;;;;;23.17;14.95;;;;;;;7.51;100.00;97006.63;5045699;28;20053;-65
2022/04/26 05:32:27;;;;;;;23.55;15.27;;;;;;;7.39;100.00;97004.00;5059905;28;20041;-65
2022/04/26 05:34:56;;;;;;;28.10;16.85;;;;;;;7.40;100.00;97004.78;5045356;28;20068;-65
2022/04/26 05:37:22;;;;;;;29.88;17.33;;;;;;;7.44;100.00;97007.84;5045130;28;20060;-64
2022/04/26 05:39:49;;;;;;;27.10;16.58;;;;;;;7.60;100.00;97015.16;5049305;28;20052;-64
2022/04/26 05:42:15;;;;;;;23.52;14.95;;;;;;;7.77;100.00;97011.66;5048993;28;20067;-64
2022/04/26 05:44:42;;;;;;;22.77;15.55;;;;;;;7.90;100.00;97029.41;5057320;28;20041;-65
2022/04/26 05:47:09;;;;;;;22.02;14.30;;;;;;;7.90;99.46;97027.53;5058126;28;20033;-65
2022/04/26 05:49:36;;;;;;;21.50;12.55;;;;;;;8.01;98.30;97023.13;5057741;28;20060;-65
2022/04/26 05:52:04;;;;;;;18.88;12.68;;;;;;;7.99;97.90;97027.16;5059116;28;20044;-45
2022/04/26 05:54:31;;;;;;;18.70;13.00;;;;;;;7.89;98.44;97019.69;5058550;28;20044;-45
2022/04/26 05:56:58;;;;;;;16.55;11.93;;;;;;;7.91;98.62;97014.84;5052728;28;20057;-48
2022/04/26 05:59:25;;;;;;;16.33;11.27;;;;;;;7.88;97.96;97012.66;5058825;28;20098;-48
2022/04/26 06:01:52;;;;;;;19.17;12.25;;;;;;;7.91;98.32;97018.38;5062165;28;20056;-46
2022/04/26 06:04:19;;;;;;;19.02;13.25;;;;;;;7.92;98.71;97038.06;5066258;28;20068;-43
2022/04/26 06:06:45;;;;;;;18.52;12.60;;;;;;;7.91;98.97;97042.66;5054209;28;20048;-44
2022/04/26 06:09:13;;;;;;;16.67;12.23;;;;;;;7.94;99.10;97039.47;5062335;28;20110;-46
2022/04/26 06:11:40;;;;;;;16.52;12.43;;;;;;;8.03;98.67;97044.44;5056260;28;20049;-45
2022/04/26 06:14:07;;;;;;;16.33;11.20;;;;;;;8.06;98.21;97044.78;5045219;28;20190;-49
2022/04/26 06:16:33;;;;;;;18.27;11.35;;;;;;;7.93;97.82;97048.59;5057515;28;20045;-47
2022/04/26 06:19:00;;;;;;;15.63;11.05;;;;;;;8.11;98.25;97043.25;5050441;28;20056;-49
2022/04/26 06:21:27;;;;;;;16.05;11.18;;;;;;;8.06;97.82;97036.69;5056533;28;20883;-47
2022/04/26 06:23:54;;;;;;;15.05;10.68;;;;;;;8.19;98.14;97042.84;5049760;28;20052;-48
2022/04/26 06:26:20;;;;;;;14.30;9.73;;;;;;;8.17;95.83;97040.38;5060735;28;20037;-44
2022/04/26 06:28:47;;;;;;;17.00;11.68;;;;;;;8.40;98.08;97030.47;5054686;28;20059;-45
2022/04/26 06:31:13;;;;;;;12.65;8.82;;;;;;;8.28;95.69;97041.38;5059981;28;20051;-43
2022/04/26 06:33:40;;;;;;;11.75;8.65;;;;;;;8.37;95.29;97049.06;5063594;28;20055;-60
2022/04/26 06:36:07;;;;;;;12.15;8.93;;;;;;;8.46;94.04;97048.41;5050914;28;20043;-60
2022/04/26 06:38:33;;;;;;;11.45;8.63;;;;;;;8.47;94.18;97051.91;5049515;28;20536;-58
2022/04/26 06:41:01;;;;;;;11.65;7.65;;;;;;;8.47;91.38;97049.19;5036874;28;20049;-60
2022/04/26 06:43:32;;;;;;;11.07;7.40;;;;;;;8.53;92.37;97044.72;5053438;28;20094;-57
2022/04/26 06:45:59;;;;;;;9.52;6.65;;;;;;;8.51;89.30;97041.44;5058277;28;20037;-58
2022/04/26 06:48:26;;;;;;;9.68;7.32;;;;;;;8.49;91.01;97046.25;5050767;28;20131;-59
2022/04/26 06:50:55;;;;;;;10.40;7.07;;;;;;;8.35;93.02;97049.28;5050291;28;20053;-58
2022/04/26 06:53:22;;;;;;;10.23;6.47;;;;;;;8.34;92.60;97063.84;5055548;28;20408;-60
2022/04/26 06:55:49;;;;;;;10.05;7.05;;;;;;;8.27;92.76;97066.72;5053357;28;20114;-59
2022/04/26 06:58:16;;;;;;;10.23;7.35;;;;;;;8.45;91.71;97059.44;5044082;28;20098;-62
2022/04/26 07:00:42;;;;;;;11.05;7.35;;;;;;;8.29;91.21;97069.16;5037175;28;20048;-65
2022/04/26 07:03:09;;;;;;;13.80;8.57;;;;;;;8.24;91.99;97063.66;5058991;28;20048;-64
2022/04/26 07:05:36;;;;;;;11.75;7.40;;;;;;;8.28;90.29;97062.13;5043474;28;20040;-64
2022/04/26 07:08:03;;;;;;;10.00;7.47;;;;;;;8.32;90.71;97060.56;5046220;28;20044;-65
2022/04/26 07:10:29;;;;;;;11.77;8.38;;;;;;;8.30;91.10;97062.69;5045846;28;20037;-66
2022/04/26 07:12:56;;;;;;;12.02;9.13;;;;;;;8.32;91.93;97055.16;5047989;28;20041;-65
2022/04/26 07:15:22;;;;;;;10.95;8.15;;;;;;;8.51;91.60;97041.44;5056379;28;20099;-63
2022/04/26 07:17:49;;;;;;;16.85;9.95;;;;;;;8.57;91.28;97046.69;5054098;28;20416;-63
2022/04/26 07:20:16;;;;;;;13.52;8.25;;;;;;;8.79;88.44;97043.22;5059876;28;20106;-65
2022/04/26 07:22:43;;;;;;;13.05;9.60;;;;;;;8.75;89.80;97033.16;5046535;28;20040;-67
2022/04/26 07:25:10;;;;;;;12.93;9.13;;;;;;;8.77;88.70;97026.44;5051838;28;20040;-65
2022/04/26 07:27:36;;;;;;;15.88;10.32;;;;;;;8.80;89.73;97034.06;5045493;28;20052;-66
2022/04/26 07:30:04;;;;;;;15.98;11.23;;;;;;;8.99;90.02;97033.75;5053516;28;20051;-64
2022/04/26 07:35:16;;;;;;;13.32;9.55;;;;;;;9.42;85.37;97033.19;5055769;28;20563;-66
2022/04/26 07:37:42;;;;;;;16.73;9.13;;;;;;;9.79;83.24;97039.81;5044135;28;20041;-65
2022/04/26 07:40:10;;;;;;;14.40;8.75;;;;;;;9.83;81.57;97020.13;5050169;28;20036;-67
2022/04/26 07:42:37;;;;;;;10.57;7.78;;;;;;;10.23;80.03;97025.31;5040838;28;20045;-66
2022/04/26 07:45:05;;;;;;;12.90;9.02;;;;;;;10.23;79.25;97034.28;5058653;28;20052;-67
2022/04/26 07:47:31;;;;;;;11.77;8.00;;;;;;;10.16;77.94;97036.38;5057066;28;20052;-67
2022/04/26 07:49:58;;;;;;;11.07;7.68;;;;;;;10.23;76.33;97034.28;5047515;28;20048;-66
2022/04/26 07:52:27;;;;;;;13.95;8.07;;;;;;;9.92;78.76;97039.41;5050394;28;20060;-66
2022/04/26 07:54:55;;;;;;;12.20;8.32;;;;;;;9.83;76.62;97044.47;5046894;28;20049;-66
2022/04/26 07:57:21;;;;;;;11.63;8.68;;;;;;;9.72;78.60;97045.41;5051652;28;20040;-65
2022/04/26 07:59:49;;;;;;;12.38;8.63;;;;;;;9.72;77.74;97061.63;5050037;28;20049;-65
2022/04/26 08:02:15;;;;;;;15.20;9.70;;;;;;;9.95;80.20;97057.81;5052139;28;20043;-64
2022/04/26 08:04:45;;;;;;;15.07;10.75;;;;;;;9.84;79.10;97075.03;5054288;28;20083;-65
2022/04/26 08:07:12;;;;;;;15.52;10.80;;;;;;;9.97;80.59;97082.72;5056014;28;20044;-63
2022/04/26 08:09:39;;;;;;;14.02;9.32;;;;;;;10.04;79.15;97082.53;5060373;28;20041;-64
2022/04/26 08:12:07;;;;;;;15.07;11.88;;;;;;;10.20;78.95;97086.19;5059161;28;20300;-63
2022/04/26 08:14:33;;;;;;;15.45;10.25;;;;;;;10.72;77.50;97092.03;5053029;28;20851;-67
2022/04/26 08:17:00;;;;;;;15.30;9.32;;;;;;;10.56;77.41;97084.88;5054219;28;20040;-65
2022/04/26 08:19:26;;;;;;;15.02;9.48;;;;;;;11.00;75.74;97103.63;5055856;28;20036;-66
2022/04/26 08:21:53;;;;;;;11.40;7.78;;;;;;;10.89;75.86;97089.19;5048728;28;20033;-65
2022/04/26 08:27:30;;;;;;;17.52;8.38;;;;;;;10.20;74.79;97109.72;5049477;28;20501;-69
2022/04/26 08:29:58;;;;;;;13.63;9.07;;;;;;;10.22;76.30;97116.53;5057351;28;20400;-65
2022/04/26 08:32:26;;;;;;;16.38;7.68;;;;;;;10.41;75.15;97116.13;5045150;28;20752;-68
2022/04/26 08:34:54;;;;;;;10.48;7.65;;;;;;;10.60;71.55;97132.03;5052226;28;20787;-68
2022/04/26 08:37:20;;;;;;;16.38;9.07;;;;;;;10.20;73.69;97132.19;5055988;28;20094;-66
2022/04/26 08:39:51;;;;;;;12.27;8.05;;;;;;;10.10;73.79;97126.69;5040731;28;20048;-68
2022/04/26 08:42:36;;;;;;;11.80;8.43;;;;;;;10.39;73.18;97129.09;5053224;28;20302;-69
2022/04/26 08:45:15;;;;;;;11.43;8.57;;;;;;;10.18;73.34;97139.75;5059292;28;20544;-68
2022/04/26 08:53:16;;;;;;;11.77;9.30;;;;;;;10.23;73.84;97134.38;5060911;28;20048;-68
2022/04/26 08:55:50;;;;;;;13.15;8.93;;;;;;;10.13;72.59;97145.09;5047043;28;20037;-66
2022/04/26 08:58:21;;;;;;;10.50;9.20;;;;;;;10.02;72.88;97146.88;5060689;28;20045;-66
2022/04/26 09:01:08;;;;;;;11.40;8.20;;;;;;;10.56;70.75;97147.97;5049212;28;20059;-67
2022/04/26 09:03:40;;;;;;;10.05;7.30;;;;;;;10.50;71.58;97157.94;5058947;28;20050;-68
2022/04/26 09:06:13;;;;;;;17.90;8.40;;;;;;;10.74;69.65;97156.78;5053289;28;20037;-70
2022/04/26 09:08:41;;;;;;;9.52;6.93;;;;;;;10.88;68.83;97157.16;5035897;28;20053;-67
2022/04/26 09:11:33;;;;;;;10.73;8.02;;;;;;;10.73;71.20;97157.88;5041673;28;20045;-67
2022/04/26 09:14:10;;;;;;;12.43;6.20;;;;;;;11.07;68.55;97152.16;5062633;28;20065;-66
2022/04/26 09:16:37;;;;;;;9.75;6.95;;;;;;;10.89;70.42;97153.38;5053136;28;20052;-63
2022/04/26 09:19:06;;;;;;;10.65;7.38;;;;;;;11.12;69.65;97163.03;5054266;28;20048;-64
2022/04/26 09:21:34;;;;;;;9.82;6.72;;;;;;;11.28;66.63;97155.00;5053093;28;20040;-64
2022/04/26 09:24:07;;;;;;;9.93;7.45;;;;;;;10.95;68.75;97154.22;5042624;28;20053;-64
2022/04/26 09:26:38;;;;;;;10.35;6.88;;;;;;;10.92;66.39;97150.97;5047851;28;20060;-64
2022/04/26 09:29:06;;;;;;;9.93;6.35;;;;;;;10.89;65.90;97154.22;5061715;28;20106;-64
2022/04/26 09:31:37;;;;;;;9.02;5.78;;;;;;;10.84;67.07;97151.44;5052303;28;20056;-64
2022/04/26 09:34:12;;;;;;;8.30;5.75;;;;;;;10.75;65.18;97148.41;5057954;28;20040;-63
2022/04/26 09:36:45;;;;;;;9.95;6.25;;;;;;;10.65;64.92;97143.72;5044884;28;20060;-64
2022/04/26 09:39:20;;;;;;;8.13;6.00;;;;;;;10.74;65.10;97143.25;5056146;28;20491;-64
2022/04/26 09:42:07;;;;;;;10.82;5.82;;;;;;;10.95;65.65;97148.81;5042569;28;20052;-64
2022/04/26 09:44:40;;;;;;;11.82;5.47;;;;;;;11.10;64.72;97148.09;5053047;28;20067;-60
2022/04/26 09:47:07;;;;;;;9.07;5.18;;;;;;;11.37;64.60;97145.28;5047961;28;20519;-64
2022/04/26 09:49:38;;;;;;;9.07;4.55;;;;;;;11.66;63.31;97136.75;5059955;28;20044;-64
2022/04/26 09:52:08;;;;;;;9.23;6.00;;;;;;;11.77;64.57;97134.06;5055830;28;20040;-62
2022/04/26 09:54:37;;;;;;;7.95;4.85;;;;;;;11.52;61.35;97139.13;5061945;28;20760;-63
2022/04/26 09:57:05;;;;;;;9.75;5.95;;;;;;;11.48;65.60;97140.75;5054620;28;20040;-63
2022/04/26 09:59:53;;;;;;;8.93;5.57;;;;;;;11.28;60.11;97149.59;5060116;28;20053;-65
2022/04/26 10:02:22;;;;;;;12.93;8.90;;;;;;;11.39;59.78;97151.25;5057733;28;20045;-65
2022/04/26 10:04:54;;;;;;;10.38;5.03;;;;;;;11.50;58.74;97149.41;5054933;28;20052;-66
2022/04/26 10:07:23;;;;;;;7.30;4.45;;;;;;;11.62;57.53;97141.09;5053212;28;20060;-66
2022/04/26 10:09:50;;;;;;;10.23;6.15;;;;;;;11.81;60.68;97148.75;5044423;28;20049;-68
2022/04/26 10:12:18;;;;;;;6.93;3.92;;;;;;;11.78;58.41;97141.94;5055238;28;20405;-65
2022/04/26 10:14:45;;;;;;;8.32;5.03;;;;;;;11.95;58.77;97152.56;5058286;28;20640;-65
2022/04/26 10:17:14;;;;;;;6.47;4.07;;;;;;;12.02;57.34;97144.19;5048776;28;20081;-65
2022/04/26 10:19:43;;;;;;;6.38;3.67;;;;;;;12.14;55.50;97148.59;5050598;28;20078;-65
2022/04/26 10:22:14;;;;;;;7.80;5.03;;;;;;;12.21;57.34;97149.97;5046463;28;20048;-66
2022/04/26 10:25:01;;;;;;;;;;;;;;;12.30;54.88;97150.28;5046700;28;20507;-66
2022/04/26 10:27:27;;;;;;;7.47;3.88;;;;;;;12.71;55.50;97148.66;5047287;28;19928;-68
2022/04/26 10:29:54;;;;;;;8.60;4.82;;;;;;;12.43;53.82;97153.56;5058988;28;20036;-62
2022/04/26 10:32:30;;;;;;;8.70;3.55;;;;;;;12.94;51.62;97144.59;5055416;28;20052;-62
2022/04/26 10:35:25;;;;;;;6.60;3.70;;;;;;;13.43;50.96;97146.97;5044523;28;20397;-66
2022/04/26 10:38:07;;;;;;;10.95;7.07;;;;;;;13.31;53.34;97156.25;5049330;28;20044;-68
2022/04/26 10:41:04;;;;;;;7.65;4.57;;;;;;;12.60;55.16;97153.28;5056840;28;20060;-66
2022/04/26 10:43:31;;;;;;;7.07;4.07;;;;;;;13.10;54.18;97158.16;5045481;28;20379;-66
2022/04/26 10:46:11;;;;;;;9.65;5.40;;;;;;;13.17;55.79;97166.88;5067272;28;20032;-61
2022/04/26 10:48:38;;;;;;;8.77;4.37;;;;;;;13.48;54.39;97172.28;5057294;28;20060;-65
2022/04/26 10:51:34;;;;;;;6.95;5.03;;;;;;;13.39;51.06;97177.41;5051372;28;20056;-62
2022/04/26 10:54:02;;;;;;;8.35;5.78;;;;;;;12.81;57.17;97200.31;5046937;28;20569;-61
2022/04/26 10:56:30;;;;;;;8.88;6.22;;;;;;;12.35;60.35;97196.44;5061518;28;20423;-64
2022/04/26 10:58:56;;;;;;;10.88;6.68;;;;;;;12.33;60.78;97217.63;5054695;28;20052;-62
2022/04/26 11:01:28;;;;;;;9.18;5.88;;;;;;;12.41;60.20;97205.41;5045994;28;20040;-66
2022/04/26 11:03:56;;;;;;;9.73;6.95;;;;;;;11.96;63.02;97221.25;5060436;28;20599;-66
2022/04/26 11:06:40;;;;;;;13.57;7.10;;;;;;;12.14;63.32;97211.84;5050040;28;20055;-66
2022/04/26 11:09:11;;;;;;;13.55;9.90;;;;;;;10.88;68.04;97220.25;5059058;28;20366;-65
2022/04/26 11:11:52;;;;;;;13.20;8.05;;;;;;;11.19;68.98;97211.56;5054137;28;20419;-65
2022/04/26 11:14:24;;;;;;;13.18;8.48;;;;;;;11.53;68.08;97202.28;5043588;28;20040;-66
2022/04/26 11:16:58;;;;;;;9.88;7.30;;;;;;;11.88;68.02;97213.59;5053966;28;20048;-67
2022/04/26 11:19:38;;;;;;;11.70;8.05;;;;;;;11.75;66.39;97226.56;5041143;28;20051;-65
2022/04/26 11:22:06;;;;;;;9.00;6.28;;;;;;;11.53;65.79;97224.81;5062690;28;20044;-65
2022/04/26 11:30:06;;;;;;;10.73;6.15;;;;;;;11.62;67.15;97230.56;5044655;28;20051;-66
2022/04/26 11:32:35;;;;;;;9.63;6.32;;;;;;;11.90;66.83;97230.44;5044382;28;20056;-65
2022/04/26 11:35:02;;;;;;;8.60;6.32;;;;;;;11.72;65.71;97235.22;5050082;28;20037;-67
2022/04/26 11:37:28;;;;;;;8.93;6.38;;;;;;;11.73;63.16;97233.34;5050089;28;20544;-67
2022/04/26 11:39:55;;;;;;;9.43;5.55;;;;;;;11.53;62.86;97238.38;5050280;28;20044;-65
2022/04/26 11:42:22;;;;;;;9.63;6.38;;;;;;;11.93;63.32;97225.31;5045382;28;20419;-64
2022/04/26 11:45:00;;;;;;;10.20;5.90;;;;;;;12.48;61.70;97243.16;5059705;28;20459;-65
2022/04/26 11:47:39;;;;;;;8.50;5.70;;;;;;;12.48;62.34;97229.59;5058549;28;20560;-65
2022/04/26 11:50:14;;;;;;;7.55;5.25;;;;;;;13.06;61.13;97233.19;5049597;28;20586;-65
2022/04/26 11:52:43;;;;;;;7.85;5.40;;;;;;;13.29;60.01;97241.88;5052239;28;20037;-65
2022/04/26 11:55:31;;;;;;;9.13;6.30;;;;;;;12.88;57.71;97252.50;5041627;28;20888;-66
2022/04/26 11:58:27;;;;;;;9.48;6.50;;;;;;;12.95;58.50;97257.66;5053485;28;20511;-64
2022/04/26 12:01:02;;;;;;;16.40;7.25;;;;;;;12.38;60.59;97251.28;5044160;28;20375;-64
2022/04/26 12:03:41;;;;;;;12.25;6.45;;;;;;;12.00;63.15;97262.22;5051748;28;20044;-65
2022/04/26 12:06:09;;;;;;;12.23;7.32;;;;;;;11.13;67.55;97294.72;5044326;28;20048;-65
2022/04/26 12:08:39;;;;;;;7.38;4.50;;;;;;;10.70;60.99;97302.72;5049891;28;20037;-65
2022/04/26 12:11:18;;;;;;;8.80;5.00;;;;;;;10.34;61.79;97297.69;5059608;28;20045;-61
2022/04/26 12:13:45;;;;;;;11.55;6.47;;;;;;;10.04;64.04;97293.53;5045204;28;20044;-62
2022/04/26 12:16:20;;;;;;;6.78;4.30;;;;;;;9.30;70.97;97301.66;5051463;28;20351;-62
2022/04/26 12:18:55;;;;;;;6.97;4.20;;;;;;;9.49;72.92;97304.91;5057683;28;20041;-62
2022/04/26 12:21:24;;;;;;;8.35;3.30;;;;;;;9.88;74.37;97306.81;5049446;28;20082;-61
2022/04/26 12:24:17;;;;;;;6.95;3.70;;;;;;;10.33;74.70;97309.59;5056145;28;20467;-61
2022/04/26 12:27:00;;;;;;;6.75;3.97;;;;;;;10.61;70.04;97306.97;5047717;28;21443;-64
2022/04/26 12:29:29;;;;;;;7.85;4.50;;;;;;;10.76;74.32;97309.81;5046412;28;20032;-64
2022/04/26 12:31:58;;;;;;;6.28;3.90;;;;;;;11.35;68.89;97312.00;5061809;28;20044;-61
2022/04/26 12:34:31;;;;;;;7.45;4.65;;;;;;;11.73;67.59;97317.41;5047129;28;20159;-61
2022/04/26 12:37:16;;;;;;;6.68;4.20;;;;;;;12.38;66.79;97300.16;5048907;28;20522;-65
2022/04/26 12:39:45;;;;;;;7.72;4.50;;;;;;;12.02;68.21;97303.50;5049924;28;20133;-61
2022/04/26 12:42:17;;;;;;;11.50;4.35;;;;;;;12.81;62.63;97308.97;5049746;28;20054;-66
2022/04/26 12:44:52;;;;;;;12.38;4.28;;;;;;;12.89;63.47;97310.34;5057437;28;20197;-62
2022/04/26 12:50:33;;;;;;;18.13;5.10;;;;;;;11.55;64.24;97308.63;5047606;28;20041;-66
2022/04/26 12:53:04;;;;;;;17.48;7.68;;;;;;;11.17;68.84;97314.00;5053755;28;20045;-62
2022/04/26 12:55:31;;;;;;;3.90;2.47;;;;;;;11.58;64.61;97314.31;5056242;28;20041;-64
2022/04/26 12:58:04;;;;;;;4.93;3.03;;;;;;;11.03;67.55;97311.69;5053898;28;20071;-66
2022/04/26 13:00:31;;;;;;;5.68;3.53;;;;;;;10.78;71.10;97314.97;5050275;28;20045;-66
2022/04/26 13:03:04;;;;;;;5.85;3.22;;;;;;;10.12;71.19;97319.31;5048459;28;20102;-66
2022/04/26 13:05:44;;;;;;;7.32;3.58;;;;;;;10.10;73.14;97313.34;5047390;28;20142;-65
2022/04/26 13:08:12;;;;;;;7.72;4.03;;;;;;;9.45;75.48;97321.88;5047069;28;20037;-65
2022/04/26 13:10:43;;;;;;;9.45;4.85;;;;;;;9.30;75.67;97320.56;5047957;28;20052;-64
2022/04/26 13:13:11;;;;;;;7.22;4.25;;;;;;;9.65;76.97;97324.06;5049633;28;20538;-62
2022/04/26 13:15:38;;;;;;;6.43;3.88;;;;;;;11.25;71.28;97320.84;5050901;28;20451;-60
2022/04/26 13:18:05;;;;;;;6.35;3.88;;;;;;;13.84;63.79;97306.59;5058367;28;20044;-61
2022/04/26 13:20:33;;;;;;;5.32;3.20;;;;;;;14.16;57.84;97308.16;5047650;28;20064;-63
2022/04/26 13:23:00;;;;;;;5.55;3.47;;;;;;;14.03;55.61;97315.00;5055310;28;20547;-61
2022/04/26 13:25:27;;;;;;;4.00;2.72;;;;;;;14.70;52.14;97306.56;5050603;28;20052;-61
2022/04/26 13:27:54;;;;;;;8.27;5.50;;;;;;;14.69;53.76;97301.41;5048706;28;20048;-61
2022/04/26 13:30:20;;;;;;;4.47;2.67;;;;;;;13.09;54.67;97304.13;5052744;28;20445;-61
2022/04/26 13:32:47;;;;;;;5.07;2.17;;;;;;;13.13;55.04;97307.94;5046201;28;20041;-63
2022/04/26 13:35:14;;;;;;;6.53;4.47;;;;;;;12.91;54.60;97304.66;5051063;28;20123;-63
2022/04/26 13:37:43;;;;;;;5.53;3.08;;;;;;;12.08;56.04;97305.16;5051600;28;20052;-63
2022/04/26 13:40:10;;;;;;;5.57;3.10;;;;;;;12.08;57.18;97306.00;5043594;28;20515;-64
2022/04/26 13:42:37;;;;;;;6.93;2.88;;;;;;;11.47;59.44;97300.97;5057209;28;20067;-64
2022/04/26 13:45:04;;;;;;;4.97;2.97;;;;;;;11.58;60.14;97302.69;5063233;28;20036;-64
2022/04/26 13:47:30;;;;;;;6.03;3.28;;;;;;;12.13;60.70;97307.94;5050424;28;20041;-63
2022/04/26 13:49:57;;;;;;;6.38;3.50;;;;;;;12.09;59.80;97304.91;5054089;28;20053;-62
2022/04/26 13:52:24;;;;;;;8.77;4.50;;;;;;;11.50;61.12;97306.66;5056385;28;20048;-61
2022/04/26 13:54:50;;;;;;;5.95;3.95;;;;;;;11.21;61.71;97311.59;5054073;28;20045;-63
2022/04/26 13:57:17;;;;;;;5.03;3.55;;;;;;;11.47;62.17;97312.63;5058463;28;20049;-62
2022/04/26 13:59:45;;;;;;;5.32;3.55;;;;;;;11.80;61.34;97318.00;5057017;28;20068;-63
2022/04/26 14:02:12;;;;;;;6.90;3.60;;;;;;;12.42;60.14;97310.22;5058390;28;20083;-64
2022/04/26 14:04:39;;;;;;;5.22;3.45;;;;;;;13.37;57.29;97312.84;5051497;28;20347;-63
2022/04/26 14:07:06;;;;;;;6.55;3.42;;;;;;;16.34;49.50;97316.75;5046107;28;20087;-62
2022/04/26 14:09:33;;;;;;;5.00;2.78;;;;;;;16.46;47.07;97314.41;5044199;28;20037;-65
2022/04/26 14:12:01;;;;;;;4.28;2.72;;;;;;;17.12;43.83;97316.56;5060674;28;20049;-64
2022/04/26 14:22:46;;;;;;;4.13;2.47;;;;;;;18.18;40.98;97317.31;5051178;28;20044;-64
2022/04/26 14:25:13;;;;;;;4.55;2.80;;;;;;;18.54;40.89;97313.03;5055771;28;20128;-63
2022/04/26 14:27:43;;;;;;;3.95;2.40;;;;;;;19.57;38.48;97309.91;5058636;28;20135;-61
2022/04/26 14:30:11;;;;;;;3.80;2.35;;;;;;;18.31;40.45;97312.94;5057897;28;20546;-65
2022/04/26 14:32:58;;;;;;;5.20;2.30;;;;;;;18.30;42.56;97314.88;5058102;28;20595;-64
2022/04/26 14:35:27;;;;;;;5.10;2.67;;;;;;;17.88;42.28;97308.50;5057062;28;20062;-65
2022/04/26 14:37:53;;;;;;;4.55;2.92;;;;;;;17.33;44.04;97318.19;5050799;28;20256;-67
2022/04/26 14:40:20;;;;;;;6.20;3.45;;;;;;;16.59;45.23;97312.88;5054834;28;20811;-65
2022/04/26 14:42:47;;;;;;;6.47;2.95;;;;;;;16.16;46.17;97318.28;5059728;28;20056;-62
2022/04/26 14:45:14;;;;;;;5.25;2.90;;;;;;;15.36;48.09;97307.56;5059711;28;20349;-63
2022/04/26 14:47:40;;;;;;;4.95;3.53;;;;;;;13.93;51.64;97315.03;5060141;28;20055;-63
2022/04/26 14:50:09;;;;;;;5.07;3.10;;;;;;;12.95;54.68;97322.88;5051160;28;20048;-61
2022/04/26 14:52:37;;;;;;;6.45;3.50;;;;;;;12.56;56.76;97312.44;5047659;28;20063;-63
2022/04/26 14:55:07;;;;;;;4.80;3.15;;;;;;;12.28;57.21;97319.94;5071222;28;20517;-63
2022/04/26 14:57:36;;;;;;;5.10;2.95;;;;;;;12.46;57.63;97324.09;5053987;28;20071;-66
2022/04/26 15:00:07;;;;;;;7.03;3.78;;;;;;;12.16;61.11;97326.38;5061092;28;20049;-67
2022/04/26 15:02:41;;;;;;;6.70;3.50;;;;;;;11.91;69.30;97332.47;5050056;28;20401;-64
2022/04/26 15:05:09;;;;;;;6.70;4.13;;;;;;;10.99;70.30;97348.50;5061361;28;20044;-64
2022/04/26 15:10:24;;;;;;;6.82;3.47;;;;;;;9.49;75.15;97368.97;5056648;28;20048;-62
2022/04/26 15:18:21;;;;;;;7.47;4.47;;;;;;;9.37;83.26;97360.94;5057160;28;20099;-66
2022/04/26 15:20:52;;;;;;;6.88;4.40;;;;;;;9.69;77.98;97363.06;5043028;28;20067;-63
2022/04/26 15:23:20;;;;;;;6.63;3.95;;;;;;;9.86;79.09;97364.94;5062776;28;20132;-65
2022/04/26 15:25:52;;;;;;;13.45;4.65;;;;;;;9.81;80.23;97368.41;5046129;28;20605;-63
2022/04/26 15:28:19;;;;;;;7.15;4.00;;;;;;;9.91;75.81;97366.91;5052378;28;20121;-65
2022/04/26 15:30:46;;;;;;;4.97;2.72;;;;;;;10.10;73.27;97365.56;5043697;28;20056;-66
2022/04/26 15:33:13;;;;;;;4.97;2.45;;;;;;;10.69;71.52;97360.63;5058726;28;20048;-66
2022/04/26 15:35:39;;;;;;;5.03;2.50;;;;;;;11.08;69.25;97365.13;5048272;28;20048;-68
2022/04/26 15:38:10;;;;;;;4.45;2.15;;;;;;;11.26;70.19;97361.25;5050529;28;20098;-66
2022/04/26 15:40:39;;;;;;;3.63;2.13;;;;;;;12.86;65.45;97360.63;5045658;28;20500;-66
2022/04/26 15:43:06;;;;;;;3.47;1.70;;;;;;;13.74;57.54;97368.09;5049580;28;20508;-64
2022/04/26 15:45:33;;;;;;;3.30;1.45;;;;;;;12.98;63.01;97365.00;5051440;28;20048;-64
2022/04/26 15:48:00;;;;;;;3.80;1.77;;;;;;;13.78;63.90;97363.75;5063192;28;20113;-60
2022/04/26 15:50:28;;;;;;;3.85;2.05;;;;;;;14.21;59.60;97364.50;5046157;28;20382;-64
2022/04/26 15:52:55;;;;;;;3.47;1.95;;;;;;;15.76;56.86;97360.16;5049729;28;20782;-64
2022/04/26 15:55:23;;;;;;;2.80;1.63;;;;;;;16.45;54.21;97364.72;5064628;28;20040;-63